sensor_id;sensor_type;location;lat;lon;timestamp;pressure;altitude;pressure_sealevel;temperature;humidity
75740;BME280;64357;51.344;6.550;2024-03-07T00:02:13;102022.91;;;7.07;100.00
75740;BME280;64357;51.344;6.550;2024-03-07T00:04:41;102028.78;;;7.13;100.00
75740;BME280;64357;51.344;6.550;2024-03-07T00:07:08;102020.97;;;7.11;100.00
75740;BME280;64357;51.344;6.550;2024-03-07T00:09:36;102029.09;;;7.09;100.00
75740;BME280;64357;51.344;6.550;2024-03-07T00:12:07;102016.59;;;6.85;100.00
75740;BME280;64357;51.344;6.550;2024-03-07T00:14:33;102037.72;;;6.78;100.00
75740;BME280;64357;51.344;6.550;2024-03-07T00:17:01;102034.56;;;6.74;100.00
75740;BME280;64357;51.344;6.550;2024-03-07T00:19:29;102021.69;;;6.85;100.00
75740;BME280;64357;51.344;6.550;2024-03-07T00:21:57;102030.63;;;7.01;100.00
75740;BME280;64357;51.344;6.550;2024-03-07T00:24:26;102027.16;;;7.01;100.00
75740;BME280;64357;51.344;6.550;2024-03-07T00:26:52;102027.16;;;7.13;100.00
75740;BME280;64357;51.344;6.550;2024-03-07T00:29:18;102036.91;;;6.98;100.00
75740;BME280;64357;51.344;6.550;2024-03-07T00:31:45;102019.84;;;6.84;100.00
75740;BME280;64357;51.344;6.550;2024-03-07T00:34:14;102019.66;;;6.82;100.00
75740;BME280;64357;51.344;6.550;2024-03-07T00:36:41;102033.47;;;6.84;100.00
75740;BME280;64357;51.344;6.550;2024-03-07T00:39:09;102031.44;;;6.82;100.00
75740;BME280;64357;51.344;6.550;2024-03-07T00:41:40;102030.00;;;6.84;100.00
75740;BME280;64357;51.344;6.550;2024-03-07T00:44:06;102025.47;;;6.81;100.00
75740;BME280;64357;51.344;6.550;2024-03-07T00:46:34;102015.31;;;6.81;100.00
75740;BME280;64357;51.344;6.550;2024-03-07T00:49:00;102025.47;;;6.68;100.00
75740;BME280;64357;51.344;6.550;2024-03-07T00:51:28;102029.53;;;6.99;100.00
75740;BME280;64357;51.344;6.550;2024-03-07T00:53:55;102021.78;;;6.79;100.00
75740;BME280;64357;51.344;6.550;2024-03-07T00:56:21;102026.97;;;6.74;100.00
75740;BME280;64357;51.344;6.550;2024-03-07T00:58:50;102020.78;;;6.72;100.00
75740;BME280;64357;51.344;6.550;2024-03-07T01:01:16;102025.03;;;6.65;100.00
75740;BME280;64357;51.344;6.550;2024-03-07T01:03:44;102029.09;;;6.58;100.00
75740;BME280;64357;51.344;6.550;2024-03-07T01:06:09;102019.44;;;6.55;100.00
75740;BME280;64357;51.344;6.550;2024-03-07T01:08:36;102025.66;;;6.70;100.00
75740;BME280;64357;51.344;6.550;2024-03-07T01:11:02;102019.66;;;6.70;100.00
75740;BME280;64357;51.344;6.550;2024-03-07T01:13:40;102023.13;;;6.70;100.00
75740;BME280;64357;51.344;6.550;2024-03-07T01:16:06;102024.84;;;6.64;100.00
75740;BME280;64357;51.344;6.550;2024-03-07T01:18:32;102013.88;;;6.71;100.00
75740;BME280;64357;51.344;6.550;2024-03-07T01:21:04;102007.13;;;7.09;100.00
75740;BME280;64357;51.344;6.550;2024-03-07T01:23:30;102016.41;;;6.96;100.00
75740;BME280;64357;51.344;6.550;2024-03-07T01:26:01;102012.53;;;7.05;100.00
75740;BME280;64357;51.344;6.550;2024-03-07T01:28:30;102004.94;;;6.92;100.00
75740;BME280;64357;51.344;6.550;2024-03-07T01:30:57;102002.59;;;6.94;100.00
75740;BME280;64357;51.344;6.550;2024-03-07T01:33:23;101994.97;;;6.81;100.00
75740;BME280;64357;51.344;6.550;2024-03-07T01:35:49;102005.84;;;6.80;100.00
75740;BME280;64357;51.344;6.550;2024-03-07T01:38:15;102000.78;;;6.80;100.00
75740;BME280;64357;51.344;6.550;2024-03-07T01:40:41;101990.31;;;6.72;100.00
75740;BME280;64357;51.344;6.550;2024-03-07T01:43:08;101995.47;;;6.79;100.00
75740;BME280;64357;51.344;6.550;2024-03-07T01:45:33;101989.78;;;6.61;100.00
75740;BME280;64357;51.344;6.550;2024-03-07T01:48:05;101999.13;;;6.68;100.00
75740;BME280;64357;51.344;6.550;2024-03-07T01:50:33;101985.63;;;6.62;100.00
75740;BME280;64357;51.344;6.550;2024-03-07T01:52:59;101993.31;;;6.56;100.00
75740;BME280;64357;51.344;6.550;2024-03-07T01:55:26;101987.03;;;6.47;100.00
75740;BME280;64357;51.344;6.550;2024-03-07T01:57:56;101976.69;;;6.46;100.00
75740;BME280;64357;51.344;6.550;2024-03-07T02:00:23;101990.47;;;6.35;100.00
75740;BME280;64357;51.344;6.550;2024-03-07T02:02:48;101981.03;;;6.34;100.00
75740;BME280;64357;51.344;6.550;2024-03-07T02:05:14;101975.75;;;6.32;100.00
75740;BME280;64357;51.344;6.550;2024-03-07T02:07:40;101970.28;;;6.29;100.00
75740;BME280;64357;51.344;6.550;2024-03-07T02:10:06;101975.56;;;6.44;100.00
75740;BME280;64357;51.344;6.550;2024-03-07T02:12:34;101977.00;;;6.54;100.00
75740;BME280;64357;51.344;6.550;2024-03-07T02:15:02;101967.53;;;6.28;100.00
75740;BME280;64357;51.344;6.550;2024-03-07T02:17:29;101961.72;;;6.16;100.00
75740;BME280;64357;51.344;6.550;2024-03-07T02:19:55;101963.84;;;6.13;100.00
75740;BME280;64357;51.344;6.550;2024-03-07T02:22:26;101937.03;;;6.02;100.00
75740;BME280;64357;51.344;6.550;2024-03-07T02:24:51;101932.94;;;5.97;100.00
75740;BME280;64357;51.344;6.550;2024-03-07T02:27:18;101967.91;;;6.18;100.00
75740;BME280;64357;51.344;6.550;2024-03-07T02:29:43;101945.78;;;6.04;100.00
75740;BME280;64357;51.344;6.550;2024-03-07T02:32:12;101960.22;;;6.24;100.00
75740;BME280;64357;51.344;6.550;2024-03-07T02:34:38;101950.44;;;6.27;100.00
75740;BME280;64357;51.344;6.550;2024-03-07T02:37:03;101958.59;;;6.37;100.00
75740;BME280;64357;51.344;6.550;2024-03-07T02:39:28;101947.91;;;6.27;100.00
75740;BME280;64357;51.344;6.550;2024-03-07T02:41:54;101956.97;;;6.25;100.00
75740;BME280;64357;51.344;6.550;2024-03-07T02:44:19;101956.69;;;6.41;100.00
75740;BME280;64357;51.344;6.550;2024-03-07T02:46:48;101953.66;;;6.57;100.00
75740;BME280;64357;51.344;6.550;2024-03-07T02:49:14;101952.31;;;6.53;100.00
75740;BME280;64357;51.344;6.550;2024-03-07T02:51:42;101947.53;;;6.36;100.00
75740;BME280;64357;51.344;6.550;2024-03-07T02:54:08;101949.16;;;6.36;100.00
75740;BME280;64357;51.344;6.550;2024-03-07T02:56:33;101949.88;;;6.22;100.00
75740;BME280;64357;51.344;6.550;2024-03-07T02:59:01;101947.63;;;6.18;100.00
75740;BME280;64357;51.344;6.550;2024-03-07T03:01:26;101940.63;;;6.23;100.00
75740;BME280;64357;51.344;6.550;2024-03-07T03:03:52;101938.91;;;6.29;100.00
75740;BME280;64357;51.344;6.550;2024-03-07T03:06:17;101942.66;;;6.25;100.00
75740;BME280;64357;51.344;6.550;2024-03-07T03:08:48;101934.75;;;6.29;100.00
75740;BME280;64357;51.344;6.550;2024-03-07T03:11:13;101932.88;;;6.15;100.00
75740;BME280;64357;51.344;6.550;2024-03-07T03:13:42;101937.00;;;6.33;100.00
75740;BME280;64357;51.344;6.550;2024-03-07T03:16:08;101939.00;;;6.10;100.00
75740;BME280;64357;51.344;6.550;2024-03-07T03:18:36;101942.84;;;6.14;100.00
75740;BME280;64357;51.344;6.550;2024-03-07T03:21:02;101929.22;;;6.13;100.00
75740;BME280;64357;51.344;6.550;2024-03-07T03:23:28;101933.09;;;6.17;100.00
75740;BME280;64357;51.344;6.550;2024-03-07T03:25:54;101937.56;;;6.12;100.00
75740;BME280;64357;51.344;6.550;2024-03-07T03:28:20;101929.84;;;6.05;100.00
75740;BME280;64357;51.344;6.550;2024-03-07T03:30:46;101934.81;;;6.11;100.00
75740;BME280;64357;51.344;6.550;2024-03-07T03:33:12;101934.13;;;6.37;100.00
75740;BME280;64357;51.344;6.550;2024-03-07T03:35:40;101935.47;;;6.41;100.00
75740;BME280;64357;51.344;6.550;2024-03-07T03:38:11;101929.16;;;6.45;100.00
75740;BME280;64357;51.344;6.550;2024-03-07T03:40:36;101936.75;;;6.32;100.00
75740;BME280;64357;51.344;6.550;2024-03-07T03:43:02;101937.56;;;6.25;100.00
75740;BME280;64357;51.344;6.550;2024-03-07T03:45:30;101934.94;;;6.18;100.00
75740;BME280;64357;51.344;6.550;2024-03-07T03:47:59;101923.78;;;6.23;100.00
75740;BME280;64357;51.344;6.550;2024-03-07T03:50:25;101928.34;;;6.26;100.00
75740;BME280;64357;51.344;6.550;2024-03-07T03:52:51;101925.78;;;6.26;100.00
75740;BME280;64357;51.344;6.550;2024-03-07T03:55:21;101918.28;;;6.20;100.00
75740;BME280;64357;51.344;6.550;2024-03-07T03:57:49;101916.69;;;6.33;100.00
75740;BME280;64357;51.344;6.550;2024-03-07T04:00:14;101922.88;;;6.23;100.00
75740;BME280;64357;51.344;6.550;2024-03-07T04:02:46;101922.78;;;6.54;100.00
75740;BME280;64357;51.344;6.550;2024-03-07T04:05:16;101931.31;;;6.41;100.00
75740;BME280;64357;51.344;6.550;2024-03-07T04:07:42;101914.53;;;6.24;100.00
75740;BME280;64357;51.344;6.550;2024-03-07T04:10:08;101910.38;;;6.24;100.00
75740;BME280;64357;51.344;6.550;2024-03-07T04:12:38;101923.16;;;6.31;100.00
75740;BME280;64357;51.344;6.550;2024-03-07T04:15:10;101915.44;;;6.11;100.00
75740;BME280;64357;51.344;6.550;2024-03-07T04:17:36;101907.22;;;6.07;100.00
75740;BME280;64357;51.344;6.550;2024-03-07T04:20:03;101901.41;;;5.95;100.00
75740;BME280;64357;51.344;6.550;2024-03-07T04:22:34;101916.84;;;6.09;100.00
75740;BME280;64357;51.344;6.550;2024-03-07T04:25:07;101906.22;;;6.12;100.00
75740;BME280;64357;51.344;6.550;2024-03-07T04:27:36;101919.06;;;6.01;100.00
75740;BME280;64357;51.344;6.550;2024-03-07T04:30:03;101919.47;;;6.04;100.00
75740;BME280;64357;51.344;6.550;2024-03-07T04:32:35;101917.66;;;6.03;100.00
75740;BME280;64357;51.344;6.550;2024-03-07T04:35:01;101921.69;;;5.95;100.00
75740;BME280;64357;51.344;6.550;2024-03-07T04:37:29;101925.50;;;6.17;100.00
75740;BME280;64357;51.344;6.550;2024-03-07T04:39:57;101914.81;;;6.07;100.00
75740;BME280;64357;51.344;6.550;2024-03-07T04:42:24;101913.31;;;5.83;100.00
75740;BME280;64357;51.344;6.550;2024-03-07T04:44:51;101909.03;;;5.95;100.00
75740;BME280;64357;51.344;6.550;2024-03-07T04:47:17;101907.19;;;5.94;100.00
75740;BME280;64357;51.344;6.550;2024-03-07T04:49:44;101908.34;;;5.78;100.00
75740;BME280;64357;51.344;6.550;2024-03-07T04:52:10;101903.19;;;5.52;100.00
75740;BME280;64357;51.344;6.550;2024-03-07T04:54:35;101912.56;;;5.72;100.00
75740;BME280;64357;51.344;6.550;2024-03-07T04:57:03;101903.72;;;5.62;100.00
75740;BME280;64357;51.344;6.550;2024-03-07T04:59:28;101915.31;;;5.73;100.00
75740;BME280;64357;51.344;6.550;2024-03-07T05:01:54;101904.47;;;5.74;100.00
75740;BME280;64357;51.344;6.550;2024-03-07T05:04:19;101912.34;;;5.57;100.00
75740;BME280;64357;51.344;6.550;2024-03-07T05:06:48;101915.47;;;5.62;100.00
75740;BME280;64357;51.344;6.550;2024-03-07T05:09:19;101915.00;;;5.65;100.00
75740;BME280;64357;51.344;6.550;2024-03-07T05:11:51;101918.00;;;5.62;100.00
75740;BME280;64357;51.344;6.550;2024-03-07T05:14:20;101917.34;;;5.63;100.00
75740;BME280;64357;51.344;6.550;2024-03-07T05:16:49;101903.34;;;5.41;100.00
75740;BME280;64357;51.344;6.550;2024-03-07T05:19:32;101908.38;;;5.59;100.00
75740;BME280;64357;51.344;6.550;2024-03-07T05:22:01;101912.25;;;5.63;100.00
75740;BME280;64357;51.344;6.550;2024-03-07T05:24:28;101897.50;;;5.48;100.00
75740;BME280;64357;51.344;6.550;2024-03-07T05:26:58;101914.03;;;5.51;100.00
75740;BME280;64357;51.344;6.550;2024-03-07T05:29:25;101908.81;;;5.44;100.00
75740;BME280;64357;51.344;6.550;2024-03-07T05:31:51;101911.06;;;5.48;100.00
75740;BME280;64357;51.344;6.550;2024-03-07T05:34:16;101911.75;;;5.34;100.00
75740;BME280;64357;51.344;6.550;2024-03-07T05:36:47;101915.44;;;5.49;100.00
75740;BME280;64357;51.344;6.550;2024-03-07T05:39:16;101904.31;;;5.54;100.00
75740;BME280;64357;51.344;6.550;2024-03-07T05:41:45;101899.03;;;5.53;100.00
75740;BME280;64357;51.344;6.550;2024-03-07T05:44:12;101905.94;;;5.54;100.00
75740;BME280;64357;51.344;6.550;2024-03-07T05:46:41;101912.00;;;5.49;100.00
75740;BME280;64357;51.344;6.550;2024-03-07T05:49:12;101911.44;;;5.39;100.00
75740;BME280;64357;51.344;6.550;2024-03-07T05:51:40;101910.66;;;5.27;100.00
75740;BME280;64357;51.344;6.550;2024-03-07T05:54:07;101900.34;;;5.25;100.00
75740;BME280;64357;51.344;6.550;2024-03-07T05:56:33;101915.41;;;5.18;100.00
75740;BME280;64357;51.344;6.550;2024-03-07T05:59:02;101919.50;;;5.23;100.00
75740;BME280;64357;51.344;6.550;2024-03-07T06:01:30;101903.03;;;5.45;100.00
75740;BME280;64357;51.344;6.550;2024-03-07T06:03:59;101908.50;;;5.35;100.00
75740;BME280;64357;51.344;6.550;2024-03-07T06:06:25;101911.44;;;5.39;100.00
75740;BME280;64357;51.344;6.550;2024-03-07T06:08:54;101910.03;;;5.41;100.00
75740;BME280;64357;51.344;6.550;2024-03-07T06:11:19;101916.66;;;5.27;100.00
75740;BME280;64357;51.344;6.550;2024-03-07T06:13:49;101898.13;;;5.52;100.00
75740;BME280;64357;51.344;6.550;2024-03-07T06:16:14;101920.47;;;5.37;100.00
75740;BME280;64357;51.344;6.550;2024-03-07T06:18:43;101912.94;;;5.31;100.00
75740;BME280;64357;51.344;6.550;2024-03-07T06:21:11;101916.22;;;5.43;100.00
75740;BME280;64357;51.344;6.550;2024-03-07T06:23:38;101911.44;;;5.39;100.00
75740;BME280;64357;51.344;6.550;2024-03-07T06:26:04;101910.13;;;5.35;100.00
75740;BME280;64357;51.344;6.550;2024-03-07T06:28:38;101916.78;;;5.53;100.00
75740;BME280;64357;51.344;6.550;2024-03-07T06:31:06;101918.59;;;5.54;100.00
75740;BME280;64357;51.344;6.550;2024-03-07T06:33:34;101910.28;;;5.55;100.00
75740;BME280;64357;51.344;6.550;2024-03-07T06:35:59;101913.19;;;5.45;100.00
75740;BME280;64357;51.344;6.550;2024-03-07T06:38:26;101911.84;;;5.60;100.00
75740;BME280;64357;51.344;6.550;2024-03-07T06:40:51;101914.16;;;5.58;100.00
75740;BME280;64357;51.344;6.550;2024-03-07T06:43:17;101922.56;;;5.52;100.00
75740;BME280;64357;51.344;6.550;2024-03-07T06:45:43;101916.38;;;5.31;100.00
75740;BME280;64357;51.344;6.550;2024-03-07T06:48:08;101919.41;;;5.29;100.00
75740;BME280;64357;51.344;6.550;2024-03-07T06:50:35;101922.75;;;5.53;100.00
75740;BME280;64357;51.344;6.550;2024-03-07T06:53:01;101910.63;;;5.64;100.00
75740;BME280;64357;51.344;6.550;2024-03-07T06:55:27;101917.81;;;5.60;100.00
75740;BME280;64357;51.344;6.550;2024-03-07T06:57:53;101913.50;;;5.72;100.00
75740;BME280;64357;51.344;6.550;2024-03-07T07:00:20;101904.81;;;5.52;100.00
75740;BME280;64357;51.344;6.550;2024-03-07T07:02:48;101917.56;;;5.77;100.00
75740;BME280;64357;51.344;6.550;2024-03-07T07:05:14;101909.00;;;5.64;100.00
75740;BME280;64357;51.344;6.550;2024-03-07T07:07:47;101918.91;;;5.81;100.00
75740;BME280;64357;51.344;6.550;2024-03-07T07:10:14;101917.00;;;5.67;100.00
75740;BME280;64357;51.344;6.550;2024-03-07T07:12:46;101911.56;;;5.95;100.00
75740;BME280;64357;51.344;6.550;2024-03-07T07:15:18;101913.94;;;5.88;100.00
75740;BME280;64357;51.344;6.550;2024-03-07T07:17:46;101917.59;;;5.90;100.00
75740;BME280;64357;51.344;6.550;2024-03-07T07:20:12;101913.44;;;5.91;100.00
75740;BME280;64357;51.344;6.550;2024-03-07T07:22:39;101917.97;;;5.99;100.00
75740;BME280;64357;51.344;6.550;2024-03-07T07:25:06;101921.81;;;6.15;100.00
75740;BME280;64357;51.344;6.550;2024-03-07T07:27:38;101919.69;;;5.93;100.00
75740;BME280;64357;51.344;6.550;2024-03-07T07:30:08;101913.00;;;6.06;100.00
75740;BME280;64357;51.344;6.550;2024-03-07T07:32:38;101914.44;;;6.17;100.00
75740;BME280;64357;51.344;6.550;2024-03-07T07:35:04;101913.53;;;6.16;100.00
75740;BME280;64357;51.344;6.550;2024-03-07T07:37:35;101911.22;;;5.86;100.00
75740;BME280;64357;51.344;6.550;2024-03-07T07:40:06;101909.22;;;6.09;100.00
75740;BME280;64357;51.344;6.550;2024-03-07T07:42:36;101903.56;;;6.18;100.00
75740;BME280;64357;51.344;6.550;2024-03-07T07:45:10;101904.91;;;6.34;100.00
75740;BME280;64357;51.344;6.550;2024-03-07T07:47:47;101900.72;;;6.60;100.00
75740;BME280;64357;51.344;6.550;2024-03-07T07:50:15;101910.78;;;6.53;100.00
75740;BME280;64357;51.344;6.550;2024-03-07T07:52:48;101901.94;;;6.44;100.00
75740;BME280;64357;51.344;6.550;2024-03-07T07:55:17;101902.16;;;6.32;100.00
75740;BME280;64357;51.344;6.550;2024-03-07T07:57:44;101894.44;;;6.38;100.00
75740;BME280;64357;51.344;6.550;2024-03-07T08:00:17;101897.97;;;6.71;100.00
75740;BME280;64357;51.344;6.550;2024-03-07T08:02:53;101912.31;;;6.71;100.00
75740;BME280;64357;51.344;6.550;2024-03-07T08:05:32;101904.97;;;6.79;100.00
75740;BME280;64357;51.344;6.550;2024-03-07T08:08:08;101906.50;;;6.72;100.00
75740;BME280;64357;51.344;6.550;2024-03-07T08:10:38;101902.88;;;6.70;100.00
75740;BME280;64357;51.344;6.550;2024-03-07T08:13:05;101907.34;;;6.65;100.00
75740;BME280;64357;51.344;6.550;2024-03-07T08:15:36;101907.66;;;6.48;100.00
75740;BME280;64357;51.344;6.550;2024-03-07T08:18:02;101894.66;;;6.39;100.00
75740;BME280;64357;51.344;6.550;2024-03-07T08:20:34;101915.25;;;6.61;100.00
75740;BME280;64357;51.344;6.550;2024-03-07T08:23:02;101905.78;;;6.73;100.00
75740;BME280;64357;51.344;6.550;2024-03-07T08:25:28;101897.66;;;6.88;100.00
75740;BME280;64357;51.344;6.550;2024-03-07T08:27:56;101909.03;;;6.84;100.00
75740;BME280;64357;51.344;6.550;2024-03-07T08:30:22;101906.88;;;7.00;100.00
75740;BME280;64357;51.344;6.550;2024-03-07T08:32:54;101905.59;;;7.16;100.00
75740;BME280;64357;51.344;6.550;2024-03-07T08:35:21;101903.25;;;7.18;100.00
75740;BME280;64357;51.344;6.550;2024-03-07T08:37:52;101901.50;;;7.24;100.00
75740;BME280;64357;51.344;6.550;2024-03-07T08:40:25;101904.00;;;7.37;100.00
75740;BME280;64357;51.344;6.550;2024-03-07T08:42:56;101895.59;;;7.31;100.00
75740;BME280;64357;51.344;6.550;2024-03-07T08:45:25;101904.06;;;7.44;100.00
75740;BME280;64357;51.344;6.550;2024-03-07T08:50:26;101896.09;;;7.68;100.00
75740;BME280;64357;51.344;6.550;2024-03-07T08:52:53;101896.44;;;7.84;100.00
75740;BME280;64357;51.344;6.550;2024-03-07T08:55:25;101892.59;;;7.60;100.00
75740;BME280;64357;51.344;6.550;2024-03-07T08:57:50;101892.47;;;7.66;100.00
75740;BME280;64357;51.344;6.550;2024-03-07T09:00:17;101899.53;;;8.08;100.00
75740;BME280;64357;51.344;6.550;2024-03-07T09:05:21;101883.56;;;7.62;100.00
75740;BME280;64357;51.344;6.550;2024-03-07T09:07:47;101879.94;;;7.67;100.00
75740;BME280;64357;51.344;6.550;2024-03-07T09:10:16;101895.06;;;7.93;100.00
75740;BME280;64357;51.344;6.550;2024-03-07T09:12:49;101887.44;;;7.73;100.00
75740;BME280;64357;51.344;6.550;2024-03-07T09:15:15;101882.69;;;7.89;100.00
75740;BME280;64357;51.344;6.550;2024-03-07T09:17:42;101871.28;;;7.53;100.00
75740;BME280;64357;51.344;6.550;2024-03-07T09:20:08;101881.00;;;7.82;100.00
75740;BME280;64357;51.344;6.550;2024-03-07T09:22:42;101879.72;;;8.06;100.00
75740;BME280;64357;51.344;6.550;2024-03-07T09:25:08;101868.22;;;8.02;100.00
75740;BME280;64357;51.344;6.550;2024-03-07T09:27:36;101883.75;;;8.11;97.37
75740;BME280;64357;51.344;6.550;2024-03-07T09:30:06;101887.44;;;8.40;95.51
75740;BME280;64357;51.344;6.550;2024-03-07T09:32:39;101873.06;;;8.20;94.20
75740;BME280;64357;51.344;6.550;2024-03-07T09:35:06;101874.16;;;8.42;96.09
75740;BME280;64357;51.344;6.550;2024-03-07T09:37:32;101874.81;;;8.34;90.93
75740;BME280;64357;51.344;6.550;2024-03-07T09:39:58;101863.31;;;8.50;87.99
75740;BME280;64357;51.344;6.550;2024-03-07T09:42:25;101864.28;;;8.72;87.10
75740;BME280;64357;51.344;6.550;2024-03-07T09:44:51;101865.28;;;8.87;85.28
75740;BME280;64357;51.344;6.550;2024-03-07T09:47:20;101855.81;;;8.86;82.67
75740;BME280;64357;51.344;6.550;2024-03-07T09:49:45;101856.06;;;9.09;81.82
75740;BME280;64357;51.344;6.550;2024-03-07T09:52:13;101859.25;;;8.87;80.88
75740;BME280;64357;51.344;6.550;2024-03-07T09:54:40;101856.47;;;9.26;79.70
75740;BME280;64357;51.344;6.550;2024-03-07T09:57:06;101858.56;;;9.02;76.82
75740;BME280;64357;51.344;6.550;2024-03-07T09:59:35;101865.75;;;9.33;73.89
75740;BME280;64357;51.344;6.550;2024-03-07T10:02:07;101859.56;;;9.45;73.28
75740;BME280;64357;51.344;6.550;2024-03-07T10:04:44;101857.38;;;9.84;70.96
75740;BME280;64357;51.344;6.550;2024-03-07T10:07:16;101863.41;;;9.77;69.89
75740;BME280;64357;51.344;6.550;2024-03-07T10:09:45;101852.25;;;10.12;67.22
75740;BME280;64357;51.344;6.550;2024-03-07T10:12:15;101853.16;;;10.27;67.21
75740;BME280;64357;51.344;6.550;2024-03-07T10:14:51;101850.03;;;10.37;65.86
75740;BME280;64357;51.344;6.550;2024-03-07T10:17:19;101845.66;;;10.22;66.45
75740;BME280;64357;51.344;6.550;2024-03-07T10:19:48;101855.22;;;9.80;67.13
75740;BME280;64357;51.344;6.550;2024-03-07T10:22:16;101858.09;;;9.47;69.98
75740;BME280;64357;51.344;6.550;2024-03-07T10:24:52;101854.28;;;9.72;69.94
75740;BME280;64357;51.344;6.550;2024-03-07T10:27:21;101859.56;;;9.95;70.06
75740;BME280;64357;51.344;6.550;2024-03-07T10:29:52;101860.50;;;9.74;69.85
75740;BME280;64357;51.344;6.550;2024-03-07T10:32:23;101861.94;;;9.51;71.35
75740;BME280;64357;51.344;6.550;2024-03-07T10:34:52;101854.25;;;9.44;72.23
75740;BME280;64357;51.344;6.550;2024-03-07T10:37:20;101853.38;;;9.50;70.91
75740;BME280;64357;51.344;6.550;2024-03-07T10:39:49;101851.53;;;9.42;72.81
75740;BME280;64357;51.344;6.550;2024-03-07T10:42:16;101851.00;;;9.52;72.76
75740;BME280;64357;51.344;6.550;2024-03-07T10:44:46;101848.28;;;9.65;71.70
75740;BME280;64357;51.344;6.550;2024-03-07T10:47:19;101838.75;;;10.28;69.30
75740;BME280;64357;51.344;6.550;2024-03-07T10:52:39;101840.00;;;11.13;61.96
75740;BME280;64357;51.344;6.550;2024-03-07T10:58:02;101831.78;;;11.84;59.29
75740;BME280;64357;51.344;6.550;2024-03-07T11:00:32;101836.69;;;11.67;59.05
75740;BME280;64357;51.344;6.550;2024-03-07T11:03:02;101819.63;;;11.74;57.11
75740;BME280;64357;51.344;6.550;2024-03-07T11:05:33;101823.31;;;11.69;57.74
75740;BME280;64357;51.344;6.550;2024-03-07T11:08:03;101820.00;;;11.70;57.31
75740;BME280;64357;51.344;6.550;2024-03-07T11:10:33;101809.13;;;12.35;55.14
75740;BME280;64357;51.344;6.550;2024-03-07T11:13:04;101816.78;;;13.06;54.10
75740;BME280;64357;51.344;6.550;2024-03-07T11:15:30;101806.66;;;12.84;53.23
75740;BME280;64357;51.344;6.550;2024-03-07T11:17:59;101806.22;;;12.47;54.00
75740;BME280;64357;51.344;6.550;2024-03-07T11:20:35;101802.66;;;13.34;51.23
75740;BME280;64357;51.344;6.550;2024-03-07T11:23:01;101798.22;;;13.49;51.50
75740;BME280;64357;51.344;6.550;2024-03-07T11:25:30;101793.44;;;13.37;51.52
75740;BME280;64357;51.344;6.550;2024-03-07T11:30:22;101784.88;;;13.95;50.31
75740;BME280;64357;51.344;6.550;2024-03-07T11:32:52;101804.56;;;14.12;49.29
75740;BME280;64357;51.344;6.550;2024-03-07T11:35:19;101799.19;;;13.76;49.34
75740;BME280;64357;51.344;6.550;2024-03-07T11:37:56;101786.13;;;13.24;50.92
75740;BME280;64357;51.344;6.550;2024-03-07T11:42:52;101777.97;;;12.23;53.99
75740;BME280;64357;51.344;6.550;2024-03-07T11:45:22;101783.19;;;12.16;54.22
75740;BME280;64357;51.344;6.550;2024-03-07T11:47:58;101779.53;;;11.59;56.24
75740;BME280;64357;51.344;6.550;2024-03-07T11:50:34;101776.28;;;11.53;58.00
75740;BME280;64357;51.344;6.550;2024-03-07T11:53:03;101771.72;;;11.96;57.38
75740;BME280;64357;51.344;6.550;2024-03-07T11:55:38;101770.13;;;12.77;55.34
75740;BME280;64357;51.344;6.550;2024-03-07T11:58:19;101769.06;;;12.75;54.60
75740;BME280;64357;51.344;6.550;2024-03-07T12:00:49;101759.03;;;13.10;53.35
75740;BME280;64357;51.344;6.550;2024-03-07T12:03:17;101754.78;;;12.37;54.01
75740;BME280;64357;51.344;6.550;2024-03-07T12:05:48;101755.09;;;12.24;54.87
75740;BME280;64357;51.344;6.550;2024-03-07T12:08:14;101753.94;;;12.94;53.95
75740;BME280;64357;51.344;6.550;2024-03-07T12:10:42;101742.88;;;12.62;54.15
75740;BME280;64357;51.344;6.550;2024-03-07T12:13:13;101750.25;;;12.59;54.21
75740;BME280;64357;51.344;6.550;2024-03-07T12:15:43;101743.78;;;12.07;55.52
75740;BME280;64357;51.344;6.550;2024-03-07T12:18:10;101740.31;;;12.62;55.06
75740;BME280;64357;51.344;6.550;2024-03-07T12:20:44;101731.38;;;12.74;53.35
75740;BME280;64357;51.344;6.550;2024-03-07T12:23:19;101726.09;;;13.30;52.18
75740;BME280;64357;51.344;6.550;2024-03-07T12:25:59;101725.88;;;13.20;52.70
75740;BME280;64357;51.344;6.550;2024-03-07T12:28:24;101703.72;;;12.47;54.08
75740;BME280;64357;51.344;6.550;2024-03-07T12:33:18;101712.16;;;11.52;58.76
75740;BME280;64357;51.344;6.550;2024-03-07T12:35:44;101707.22;;;11.69;58.28
75740;BME280;64357;51.344;6.550;2024-03-07T12:38:11;101706.88;;;11.50;59.49
75740;BME280;64357;51.344;6.550;2024-03-07T12:40:38;101695.50;;;11.55;59.40
75740;BME280;64357;51.344;6.550;2024-03-07T12:43:17;101691.94;;;11.78;59.66
75740;BME280;64357;51.344;6.550;2024-03-07T12:48:16;101689.06;;;11.59;60.96
75740;BME280;64357;51.344;6.550;2024-03-07T12:50:44;101696.25;;;11.31;62.19
75740;BME280;64357;51.344;6.550;2024-03-07T12:53:12;101683.34;;;11.45;62.89
75740;BME280;64357;51.344;6.550;2024-03-07T12:55:39;101694.22;;;11.36;63.67
75740;BME280;64357;51.344;6.550;2024-03-07T12:58:08;101683.53;;;11.08;64.97
75740;BME280;64357;51.344;6.550;2024-03-07T13:00:35;101674.78;;;10.53;69.18
75740;BME280;64357;51.344;6.550;2024-03-07T13:03:00;101685.34;;;10.86;70.14
75740;BME280;64357;51.344;6.550;2024-03-07T13:05:26;101674.59;;;10.82;68.90
75740;BME280;64357;51.344;6.550;2024-03-07T13:07:51;101680.47;;;11.04;67.66
75740;BME280;64357;51.344;6.550;2024-03-07T13:10:17;101667.16;;;10.99;68.23
75740;BME280;64357;51.344;6.550;2024-03-07T13:12:46;101671.22;;;11.13;69.79
75740;BME280;64357;51.344;6.550;2024-03-07T13:15:17;101671.81;;;10.87;69.83
75740;BME280;64357;51.344;6.550;2024-03-07T13:17:43;101670.47;;;10.98;69.99